Anchorage, AK

02:16 PM AKDT ar Hydref 01, 2014 (GMT -0800)
Merrill | Change Station
CLOSE
Current Station
Airport
Location: Anchorage Merrill,
Elevation: 135 ft
Nearby Weather Stations

Elev 135 ft 61.22 °N, 149.85 °W | Updated 23 minutes ago

Clear
Clir
46 °F
Feels Like 44 °F
N
5
Gwynt Cyfnewidiol Gwynt from GwGGw

Heddiw
High -- | Low -- °F
--% Chance of Precip.
Yesterday
High -- | Low -- °F
Precip. -- mod
8:06 AM 7:30 PM
First Quarter, 51% visible
Gwasgedd 30.27 mod
Gwelededd 10.0 Milltiroedd
Clouds Clir
Oerfel Gwynt 44 °F
Gwlithbwynt 30 °F
Lleithder 54%
Rainfall 0.00 mod
Snow Depth 102 in , 77 in , 1 in
UV 2 out of 12
Pollen Not available.
Air Quality Not available.
Flu Activity Not available.
METAR PAMR 012153Z 29004KT 10SM CLR 08/M01 A3027 RMK AO2 SLP251 T00781011

More Conditions Fewer Conditions

Gwasgedd 30.27 mod
Gwelededd 10.0 Milltiroedd
Clouds Clir
Oerfel Gwynt 44 °F
Gwlithbwynt 30 °F
Lleithder 54%
Rainfall 0.00 mod
Snow Depth 102 in , 77 in , 1 in
UV 2 out of 12
Pollen Not available.
Air Quality Not available.
Flu Activity Not available.
METAR PAMR 012153Z 29004KT 10SM CLR 08/M01 A3027 RMK AO2 SLP251 T00781011

More Conditions Fewer Conditions

10-Day Weather Forecast

Almanac

Astronomy

Oct. 01, 2014 Rise Set
Actual Time 8:06 AM AKDT 7:30 PM AKDT
Civil Twilight 7:23 AM AKDT 8:13 PM AKDT
Nautical Twilight 6:32 AM AKDT 9:03 PM AKDT
Astronomical Twilight 5:38 AM AKDT 9:56 PM AKDT
Moon 4:28 PM AKDT Dim Machlud Lleuad
Length Of Visible Light 12h 49m
Length of Day
11h 23m
Tomorrow will be 5m 40s shorter.
First Quarter, 51% of the Moon is Illuminated
Heddiw
First Quarter
Oct 8
Full
Oct 15
Last Quarter
Oct 23
New
Oct 30
First Quarter

Today's Extremes

State Highs State Lows

Community

WunderPhotos

Upload Photos

1,758,058 photos uploaded!

WunderBlogs® & News

By Dr. Jeff Masters
Director of Meteorology, Weather Underground
By Kari Strenfel
Meteorologist, Weather Underground
By Christopher C. Burt
Weather Historian, Weather Underground
October 1, 2014
October 1, 2014
October 1, 2014

Nearby

Snow Depth

Station Depth Elevation
Atigun Pass 102 in 4800 ft
Eagle Summit 77 in 3650 ft
Mcneil Canyon 1 in 1320 ft
Susitna Valley High 1 in 375 ft
Little Chena Ridge 2 in 2000 ft

Earthquake Activity

City Distance Mag. Time & Date
No recent earthquake activity has been reported nearby.
Minimum magnitude displayed is 2.5.

Coastal Water Temperatures

Lle Tymheredd
No Stations Reporting

Nearby Weather Stations